createdAt,value
2022-12-24T00:00:39.316Z,36.08
2022-12-24T00:03:27.489Z,34.17
2022-12-24T00:05:58.553Z,33.70
2022-12-24T00:08:30.113Z,37.50
2022-12-24T00:11:01.855Z,36.97
2022-12-24T00:13:34.005Z,35.38
2022-12-24T00:16:05.492Z,36.38
2022-12-24T00:18:45.406Z,29.52
2022-12-24T00:21:18.142Z,34.45
2022-12-24T00:23:50.123Z,39.47
2022-12-24T00:26:21.593Z,38.33
2022-12-24T00:28:53.514Z,38.97
2022-12-24T00:31:24.824Z,44.88
2022-12-24T00:33:59.012Z,40.97
2022-12-24T00:36:30.229Z,36.40
2022-12-24T00:39:01.782Z,37.13
2022-12-24T00:41:34.316Z,32.38
2022-12-24T00:44:10.138Z,32.22
2022-12-24T00:46:42.703Z,32.50
2022-12-24T00:49:16.760Z,28.92
2022-12-24T00:51:47.660Z,30.42
2022-12-24T00:54:19.477Z,29.10
2022-12-24T00:56:50.287Z,32.83
2022-12-24T00:59:21.627Z,28.33
2022-12-24T01:04:40.363Z,32.60
2022-12-24T01:07:11.725Z,32.50
2022-12-24T01:09:44.215Z,32.28
2022-12-24T01:12:16.471Z,39.63
2022-12-24T01:14:48.394Z,35.42
2022-12-24T01:17:19.701Z,34.65
2022-12-24T01:19:53.926Z,31.27
2022-12-24T01:22:25.121Z,31.38
2022-12-24T01:24:56.753Z,28.02
2022-12-24T01:27:27.543Z,32.25
2022-12-24T01:29:59.043Z,32.63
2022-12-24T01:32:31.431Z,35.00
2022-12-24T01:35:06.005Z,36.60
2022-12-24T01:37:37.045Z,37.97
2022-12-24T01:40:22.848Z,29.83
2022-12-24T01:43:08.322Z,35.72
2022-12-24T01:45:53.523Z,35.78
2022-12-24T01:48:30.489Z,32.38
2022-12-24T01:51:08.645Z,34.58
2022-12-24T01:53:42.700Z,35.33
2022-12-24T01:56:15.851Z,36.33
2022-12-24T01:58:51.112Z,34.72
2022-12-24T02:01:22.483Z,34.35
2022-12-24T02:03:54.638Z,33.22
2022-12-24T02:06:29.090Z,36.10
2022-12-24T02:09:00.497Z,34.35
2022-12-24T02:11:33.078Z,32.28
2022-12-24T02:14:05.652Z,31.35
2022-12-24T02:16:47.117Z,34.25
2022-12-24T02:19:44.685Z,32.35
2022-12-24T02:22:24.208Z,31.35
2022-12-24T02:25:24.587Z,31.40
2022-12-24T02:28:01.113Z,31.52
2022-12-24T02:30:39.821Z,32.53
2022-12-24T02:33:21.355Z,31.42
2022-12-24T02:35:56.214Z,31.98
2022-12-24T02:38:32.458Z,30.80
2022-12-24T02:41:08.995Z,35.33
2022-12-24T02:43:44.887Z,36.13
2022-12-24T02:46:22.938Z,30.85
2022-12-24T02:48:55.766Z,35.78
2022-12-24T02:51:28.021Z,35.85
2022-12-24T02:53:59.826Z,39.92
2022-12-24T02:56:51.542Z,25.67
2022-12-24T02:59:45.794Z,23.50
2022-12-24T03:02:29.398Z,22.98
2022-12-24T03:05:12.155Z,24.02
2022-12-24T03:07:50.790Z,21.08
2022-12-24T03:10:26.929Z,22.48
2022-12-24T03:13:02.775Z,19.60
2022-12-24T03:15:35.743Z,22.02
2022-12-24T03:18:11.507Z,25.33
2022-12-24T03:20:45.315Z,25.65
2022-12-24T03:23:17.705Z,22.60
2022-12-24T03:25:49.395Z,23.77
2022-12-24T03:28:22.089Z,25.13
2022-12-24T03:30:53.308Z,24.08
2022-12-24T03:33:27.209Z,21.17
2022-12-24T03:35:58.331Z,30.98
2022-12-24T03:38:29.562Z,24.48
2022-12-24T03:41:01.110Z,23.58
2022-12-24T03:43:32.599Z,17.67
2022-12-24T03:46:08.888Z,21.52
2022-12-24T03:48:43.017Z,18.42
2022-12-24T03:51:20.706Z,21.30
2022-12-24T03:53:51.969Z,25.02
2022-12-24T03:56:23.733Z,25.30
2022-12-24T03:58:54.882Z,24.30
2022-12-24T04:01:26.031Z,23.23
2022-12-24T04:03:59.718Z,25.35
2022-12-24T04:06:30.827Z,25.88
2022-12-24T04:09:05.284Z,27.85
2022-12-24T04:11:36.723Z,21.52
2022-12-24T04:14:07.749Z,21.60
2022-12-24T04:16:38.948Z,20.67
2022-12-24T04:19:13.372Z,25.50
2022-12-24T04:21:44.728Z,29.05
2022-12-24T04:26:46.350Z,28.38
2022-12-24T04:31:48.321Z,39.60
2022-12-24T04:34:22.156Z,54.63
2022-12-24T04:36:53.858Z,54.72
2022-12-24T04:39:24.624Z,37.10
2022-12-24T04:41:55.613Z,30.38
2022-12-24T04:44:26.451Z,22.50
2022-12-24T04:46:57.609Z,35.95
2022-12-24T04:49:31.759Z,28.63
2022-12-24T04:52:03.083Z,25.55
2022-12-24T04:54:33.873Z,22.73
2022-12-24T04:57:05.293Z,22.58
2022-12-24T04:59:36.304Z,23.85
2022-12-24T05:02:07.815Z,19.00
2022-12-24T05:04:41.268Z,24.48
2022-12-24T05:07:12.461Z,26.77
2022-12-24T05:09:43.629Z,25.42
2022-12-24T05:12:14.974Z,22.65
2022-12-24T05:14:45.771Z,20.67
2022-12-24T05:17:17.095Z,18.58
2022-12-24T05:19:51.220Z,19.73
2022-12-24T05:22:36.535Z,22.17
2022-12-24T05:25:19.908Z,11.18
2022-12-24T05:27:51.630Z,12.45
2022-12-24T05:30:22.791Z,12.48
2022-12-24T05:32:54.261Z,11.50
2022-12-24T05:35:28.361Z,19.35
2022-12-24T05:38:01.569Z,25.90
2022-12-24T05:40:32.539Z,39.05
2022-12-24T05:43:03.944Z,56.45
2022-12-24T05:45:36.003Z,52.80
2022-12-24T05:48:08.331Z,17.48
2022-12-24T05:50:43.288Z,11.73
2022-12-24T05:53:14.539Z,13.27
2022-12-24T05:58:16.496Z,18.17
2022-12-24T06:00:47.942Z,20.27
2022-12-24T06:03:19.029Z,16.20
2022-12-24T06:06:00.293Z,23.67
2022-12-24T06:08:32.304Z,20.10
2022-12-24T06:11:05.934Z,28.95
2022-12-24T06:13:39.127Z,33.75
2022-12-24T06:16:12.204Z,20.30
2022-12-24T06:18:45.030Z,45.22
2022-12-24T06:21:19.912Z,24.45
2022-12-24T06:23:52.102Z,22.05
2022-12-24T06:26:25.736Z,18.48
2022-12-24T06:28:58.662Z,23.95
2022-12-24T06:31:30.252Z,39.40
2022-12-24T06:34:01.569Z,35.50
2022-12-24T06:39:05.842Z,20.15
2022-12-24T06:41:37.323Z,18.33
2022-12-24T06:44:08.762Z,28.15
2022-12-24T06:46:39.644Z,49.45
2022-12-24T06:49:11.481Z,22.42
2022-12-24T06:51:45.399Z,20.00
2022-12-24T06:54:16.646Z,24.02
2022-12-24T06:59:18.268Z,17.55
2022-12-24T07:01:49.300Z,16.13
2022-12-24T07:04:21.156Z,20.40
2022-12-24T07:06:55.490Z,18.27
2022-12-24T07:09:27.002Z,25.92
2022-12-24T07:11:58.367Z,24.77
2022-12-24T07:14:29.920Z,33.63
2022-12-24T07:17:01.881Z,40.45
2022-12-24T07:19:34.395Z,52.22
2022-12-24T07:22:15.058Z,50.95
2022-12-24T07:24:46.818Z,40.83
2022-12-24T07:27:18.398Z,45.47
2022-12-24T07:29:50.637Z,45.70
2022-12-24T07:32:21.975Z,59.95
2022-12-24T07:34:54.103Z,60.78
2022-12-24T07:37:28.141Z,78.38
2022-12-24T07:40:01.311Z,77.88
2022-12-24T07:42:32.949Z,68.22
2022-12-24T07:45:05.148Z,83.07
2022-12-24T07:47:37.372Z,89.65
2022-12-24T07:50:10.757Z,89.38
2022-12-24T07:52:44.646Z,97.40
2022-12-24T07:55:15.988Z,97.95
2022-12-24T07:57:46.745Z,100.82
2022-12-24T08:00:18.752Z,105.90
2022-12-24T08:02:50.067Z,106.45
2022-12-24T08:05:21.371Z,102.75
2022-12-24T08:07:54.926Z,80.38
2022-12-24T08:10:27.202Z,79.78
2022-12-24T08:13:01.323Z,63.85
2022-12-24T08:15:33.755Z,81.22
2022-12-24T08:18:05.315Z,77.68
2022-12-24T08:20:37.662Z,84.72
2022-12-24T08:23:12.474Z,87.95
2022-12-24T08:25:46.659Z,61.90
2022-12-24T08:28:21.027Z,59.05
2022-12-24T08:30:54.554Z,48.40
2022-12-24T08:33:26.087Z,51.97
2022-12-24T08:35:58.952Z,61.22
2022-12-24T08:38:33.450Z,55.67
2022-12-24T08:41:05.552Z,71.93
2022-12-24T08:43:36.799Z,72.05
2022-12-24T08:46:09.366Z,61.47
2022-12-24T08:48:40.949Z,48.90
2022-12-24T08:51:12.845Z,46.13
2022-12-24T08:53:46.247Z,52.20
2022-12-24T08:56:17.399Z,20.40
2022-12-24T09:01:22.016Z,55.53
2022-12-24T09:03:53.394Z,54.67
2022-12-24T09:06:24.944Z,52.35
2022-12-24T09:09:00.073Z,30.52
2022-12-24T09:11:31.480Z,34.10
2022-12-24T09:14:02.819Z,23.95
2022-12-24T09:16:34.635Z,26.05
2022-12-24T09:19:05.931Z,27.60
2022-12-24T09:21:37.484Z,26.15
2022-12-24T09:24:11.494Z,35.45
2022-12-24T09:26:46.156Z,17.48
2022-12-24T09:29:19.613Z,32.45
2022-12-24T09:31:51.439Z,27.75
2022-12-24T09:34:29.992Z,35.90
2022-12-24T09:37:03.314Z,36.45
2022-12-24T09:39:37.392Z,42.70
2022-12-24T09:42:21.523Z,39.28
2022-12-24T09:45:00.422Z,29.05
2022-12-24T09:47:39.875Z,27.27
2022-12-24T09:50:29.584Z,32.65
2022-12-24T09:53:04.692Z,39.20
2022-12-24T09:55:44.082Z,29.15
2022-12-24T09:58:23.659Z,18.02
2022-12-24T10:00:55.585Z,18.63
2022-12-24T10:03:26.696Z,14.07
2022-12-24T10:06:09.551Z,17.15
2022-12-24T10:08:55.131Z,13.60
2022-12-24T10:11:39.389Z,13.20
2022-12-24T10:14:21.670Z,17.73
2022-12-24T10:17:01.389Z,13.50
2022-12-24T10:19:44.341Z,9.88
2022-12-24T10:22:26.928Z,10.00
2022-12-24T10:25:06.057Z,20.48
2022-12-24T10:27:42.673Z,24.77
2022-12-24T10:30:19.846Z,22.02
2022-12-24T10:32:53.876Z,28.20
2022-12-24T10:35:29.667Z,25.25
2022-12-24T10:38:00.404Z,16.63
2022-12-24T10:40:37.768Z,28.73
2022-12-24T10:43:17.785Z,22.95
2022-12-24T10:45:52.163Z,16.88
2022-12-24T10:48:31.149Z,17.88
2022-12-24T10:51:06.094Z,19.13
2022-12-24T10:53:43.795Z,16.45
2022-12-24T10:56:18.133Z,18.23
2022-12-24T10:58:57.374Z,18.52
2022-12-24T11:01:47.730Z,22.05
2022-12-24T11:04:20.998Z,10.40
2022-12-24T11:07:00.386Z,16.73
2022-12-24T11:09:33.759Z,10.50
2022-12-24T11:12:09.762Z,13.07
2022-12-24T11:14:43.437Z,13.65
2022-12-24T11:17:23.910Z,14.30
2022-12-24T11:19:54.998Z,15.20
2022-12-24T11:22:29.423Z,14.10
2022-12-24T11:25:05.191Z,16.50
2022-12-24T11:27:44.445Z,14.82
2022-12-24T11:30:26.721Z,15.82
2022-12-24T11:33:19.294Z,17.45
2022-12-24T11:35:54.780Z,14.73
2022-12-24T11:38:28.195Z,18.50
2022-12-24T11:41:08.668Z,20.58
2022-12-24T11:43:49.252Z,20.23
2022-12-24T11:46:40.286Z,18.70
2022-12-24T11:49:25.356Z,18.10
2022-12-24T11:52:26.823Z,23.00
2022-12-24T11:55:27.828Z,23.35
2022-12-24T11:58:04.030Z,22.20
2022-12-24T12:00:35.192Z,20.35
2022-12-24T12:03:22.245Z,18.83
2022-12-24T12:05:55.314Z,21.75
2022-12-24T12:08:29.301Z,23.38
2022-12-24T12:11:02.763Z,20.23
2022-12-24T12:13:38.223Z,22.67
2022-12-24T12:16:22.571Z,18.55
2022-12-24T12:19:01.651Z,19.30
2022-12-24T12:21:42.253Z,18.13
2022-12-24T12:24:20.099Z,17.17
2022-12-24T12:26:57.784Z,19.92
2022-12-24T12:29:34.229Z,16.25
2022-12-24T12:32:10.664Z,15.25
2022-12-24T12:34:48.528Z,17.80
2022-12-24T12:37:27.230Z,17.38
2022-12-24T12:39:58.519Z,17.70
2022-12-24T12:42:34.494Z,16.00
2022-12-24T12:45:28.332Z,18.20
2022-12-24T12:48:13.425Z,19.75
2022-12-24T12:50:53.865Z,18.08
2022-12-24T12:53:42.886Z,23.92
2022-12-24T12:56:24.963Z,17.00
2022-12-24T12:58:58.919Z,24.35
2022-12-24T13:01:43.147Z,18.33
2022-12-24T13:04:49.163Z,24.67
2022-12-24T13:07:47.169Z,34.35
2022-12-24T13:10:37.554Z,37.92
2022-12-24T13:13:37.059Z,21.80
2022-12-24T13:16:42.054Z,28.13
2022-12-24T13:19:31.564Z,27.95
2022-12-24T13:22:05.922Z,24.25
2022-12-24T13:24:40.392Z,24.50
2022-12-24T13:27:23.296Z,21.02
2022-12-24T13:30:03.638Z,20.08
2022-12-24T13:32:53.375Z,26.95
2022-12-24T13:35:38.270Z,30.58
2022-12-24T13:38:33.851Z,21.10
2022-12-24T13:41:39.405Z,18.73
2022-12-24T13:44:23.767Z,17.58
2022-12-24T13:47:00.790Z,32.20
2022-12-24T13:49:36.719Z,26.08
2022-12-24T13:52:30.400Z,20.08
2022-12-24T13:55:18.667Z,28.20
2022-12-24T13:57:58.799Z,40.67
2022-12-24T14:00:43.370Z,43.08
2022-12-24T14:03:29.036Z,45.53
2022-12-24T14:06:03.955Z,40.72
2022-12-24T14:08:40.470Z,35.95
2022-12-24T14:11:16.304Z,20.27
2022-12-24T14:14:17.313Z,18.77
2022-12-24T14:16:53.762Z,19.17
2022-12-24T14:19:33.678Z,27.55
2022-12-24T14:22:23.351Z,24.50
2022-12-24T14:24:59.634Z,21.63
2022-12-24T14:27:37.443Z,28.48
2022-12-24T14:30:11.900Z,37.28
2022-12-24T14:32:46.147Z,31.08
2022-12-24T14:35:23.683Z,29.17
2022-12-24T14:38:01.006Z,69.32
2022-12-24T14:40:35.594Z,34.17
2022-12-24T14:43:22.749Z,36.10
2022-12-24T14:46:02.616Z,44.50
2022-12-24T14:48:44.373Z,33.40
2022-12-24T14:51:22.813Z,29.67
2022-12-24T14:54:19.126Z,36.53
2022-12-24T14:56:50.157Z,35.05
2022-12-24T14:59:25.206Z,37.45
2022-12-24T15:01:56.516Z,19.88
2022-12-24T15:04:31.203Z,23.15
2022-12-24T15:07:05.395Z,19.75
2022-12-24T15:09:41.075Z,21.52
2022-12-24T15:12:15.783Z,17.50
2022-12-24T15:14:48.853Z,15.73
2022-12-24T15:17:20.809Z,18.30
2022-12-24T15:19:58.404Z,24.05
2022-12-24T15:22:33.144Z,37.88
2022-12-24T15:25:04.909Z,46.25
2022-12-24T15:27:42.418Z,40.95
2022-12-24T15:30:18.837Z,37.10
2022-12-24T15:32:50.719Z,42.35
2022-12-24T15:35:51.455Z,56.67
2022-12-24T15:38:30.120Z,53.80
2022-12-24T15:41:02.201Z,29.45
2022-12-24T15:43:34.888Z,33.28
2022-12-24T15:46:06.553Z,34.72
2022-12-24T15:48:39.935Z,29.73
2022-12-24T15:51:14.521Z,31.63
2022-12-24T15:53:49.454Z,24.60
2022-12-24T15:56:34.658Z,20.13
2022-12-24T15:59:31.520Z,42.88
2022-12-24T16:02:38.770Z,32.33
2022-12-24T16:05:37.007Z,38.35
2022-12-24T16:08:31.791Z,36.28
2022-12-24T16:11:19.183Z,35.60
2022-12-24T16:14:07.496Z,26.30
2022-12-24T16:16:41.920Z,21.75
2022-12-24T16:19:21.481Z,23.35
2022-12-24T16:21:57.232Z,21.73
2022-12-24T16:24:34.328Z,35.88
2022-12-24T16:27:05.850Z,27.17
2022-12-24T16:29:37.334Z,24.63
2022-12-24T16:32:10.804Z,29.60
2022-12-24T16:34:42.942Z,25.30
2022-12-24T16:37:15.066Z,11.80
2022-12-24T16:39:51.097Z,13.95
2022-12-24T16:42:34.778Z,12.88
2022-12-24T16:45:08.683Z,15.48
2022-12-24T16:51:49.919Z,35.08
2022-12-24T16:54:22.932Z,31.48
2022-12-24T16:57:00.190Z,26.15
2022-12-24T16:59:33.084Z,54.55
2022-12-24T17:02:12.565Z,47.55
2022-12-24T17:04:47.143Z,52.67
2022-12-24T17:07:22.932Z,24.77
2022-12-24T17:09:56.244Z,17.45
2022-12-24T17:12:27.939Z,13.77
2022-12-24T17:14:59.321Z,15.93
2022-12-24T17:17:33.070Z,12.57
2022-12-24T17:20:05.386Z,13.55
2022-12-24T17:22:39.627Z,15.35
2022-12-24T17:25:13.771Z,14.57
2022-12-24T17:27:45.401Z,21.52
2022-12-24T17:30:18.173Z,11.68
2022-12-24T17:32:49.664Z,18.88
2022-12-24T17:35:24.081Z,10.55
2022-12-24T17:37:58.213Z,12.90
2022-12-24T17:40:33.570Z,17.17
2022-12-24T17:43:05.297Z,15.30
2022-12-24T17:45:36.730Z,17.55
2022-12-24T17:48:08.931Z,18.42
2022-12-24T17:50:42.569Z,19.33
2022-12-24T17:53:16.548Z,18.63
2022-12-24T17:55:48.071Z,15.93
2022-12-24T17:58:18.843Z,17.42
2022-12-24T18:00:52.726Z,14.07
2022-12-24T18:03:23.812Z,17.50
2022-12-24T18:05:55.290Z,19.65
2022-12-24T18:08:29.001Z,16.80
2022-12-24T18:11:00.165Z,20.60
2022-12-24T18:13:30.901Z,20.10
2022-12-24T18:16:02.222Z,26.20
2022-12-24T18:21:05.419Z,20.25
2022-12-24T18:23:39.020Z,22.40
2022-12-24T18:26:10.598Z,24.05
2022-12-24T18:28:42.330Z,28.75
2022-12-24T18:31:17.705Z,30.00
2022-12-24T18:33:51.873Z,35.33
2022-12-24T18:36:23.937Z,22.63
2022-12-24T18:38:57.844Z,28.27
2022-12-24T18:41:30.687Z,39.45
2022-12-24T18:44:02.546Z,46.53
2022-12-24T18:46:36.032Z,44.03
2022-12-24T18:49:07.061Z,51.97
2022-12-24T18:51:38.608Z,41.65
2022-12-24T18:54:12.616Z,27.58
2022-12-24T18:56:43.978Z,24.42
2022-12-24T18:59:14.770Z,25.45
2022-12-24T19:01:47.136Z,21.50
2022-12-24T19:04:21.801Z,28.35
2022-12-24T19:06:54.008Z,30.50
2022-12-24T19:09:27.564Z,25.73
2022-12-24T19:11:59.217Z,36.38
2022-12-24T19:14:30.606Z,39.63
2022-12-24T19:17:02.307Z,36.33
2022-12-24T19:19:33.049Z,26.67
2022-12-24T19:22:04.381Z,34.97
2022-12-24T19:24:38.535Z,79.30
2022-12-24T19:27:09.966Z,122.13
2022-12-24T19:29:41.477Z,120.43
2022-12-24T19:32:13.092Z,49.80
2022-12-24T19:34:44.702Z,65.05
2022-12-24T19:37:16.590Z,44.42
2022-12-24T19:39:50.452Z,34.58
2022-12-24T19:42:21.811Z,50.08
2022-12-24T19:47:24.012Z,52.22
2022-12-24T19:49:54.936Z,33.15
2022-12-24T19:52:26.297Z,24.98
2022-12-24T19:55:00.421Z,17.55
2022-12-24T19:57:31.836Z,16.13
2022-12-24T20:00:02.701Z,17.38
2022-12-24T20:02:43.545Z,15.18
2022-12-24T20:05:14.335Z,15.05
2022-12-24T20:07:46.256Z,21.20
2022-12-24T20:10:20.973Z,25.38
2022-12-24T20:12:52.593Z,34.80
2022-12-24T20:15:23.461Z,43.15
2022-12-24T20:17:54.915Z,37.40
2022-12-24T20:20:26.529Z,50.22
2022-12-24T20:22:58.025Z,52.33
2022-12-24T20:25:32.260Z,36.75
2022-12-24T20:28:03.671Z,24.92
2022-12-24T20:33:06.922Z,69.07
2022-12-24T20:35:38.524Z,55.42
2022-12-24T20:38:10.021Z,24.27
2022-12-24T20:40:47.411Z,33.75
2022-12-24T20:43:24.069Z,30.27
2022-12-24T20:45:56.382Z,29.35
2022-12-24T20:48:28.955Z,29.13
2022-12-24T20:51:01.935Z,29.02
2022-12-24T20:53:33.983Z,30.08
2022-12-24T20:56:08.843Z,29.80
2022-12-24T20:58:39.965Z,35.17
2022-12-24T21:01:14.420Z,47.25
2022-12-24T21:03:46.008Z,93.60
2022-12-24T21:06:19.656Z,104.13
2022-12-24T21:08:52.946Z,53.53
2022-12-24T21:11:39.080Z,36.85
2022-12-24T21:14:11.000Z,43.30
2022-12-24T21:16:45.287Z,34.25
2022-12-24T21:19:19.595Z,29.33
2022-12-24T21:21:50.507Z,28.98
2022-12-24T21:24:22.263Z,35.95
2022-12-24T21:26:55.672Z,30.48
2022-12-24T21:29:27.537Z,37.58
2022-12-24T21:31:59.291Z,37.80
2022-12-24T21:34:30.866Z,29.75
2022-12-24T21:37:01.591Z,32.40
2022-12-24T21:39:32.823Z,31.83
2022-12-24T21:44:39.150Z,34.90
2022-12-24T21:47:11.196Z,29.40
2022-12-24T21:49:55.996Z,35.60
2022-12-24T21:52:27.417Z,24.65
2022-12-24T21:54:57.313Z,28.80
2022-12-24T21:57:43.201Z,32.20
2022-12-24T22:00:27.148Z,31.15
2022-12-24T22:03:01.658Z,30.52
2022-12-24T22:05:36.538Z,35.80
2022-12-24T22:08:20.320Z,38.38
2022-12-24T22:11:05.348Z,46.35
2022-12-24T22:13:39.440Z,33.17
2022-12-24T22:16:15.311Z,27.98
2022-12-24T22:18:46.429Z,23.40
2022-12-24T22:21:18.163Z,27.80
2022-12-24T22:23:49.734Z,31.05
2022-12-24T22:26:21.819Z,27.85
2022-12-24T22:28:55.358Z,22.73
2022-12-24T22:31:27.561Z,19.55
2022-12-24T22:33:59.246Z,18.65
2022-12-24T22:36:30.851Z,20.98
2022-12-24T22:39:01.882Z,20.95
2022-12-24T22:41:34.138Z,25.02
2022-12-24T22:44:07.909Z,24.00
2022-12-24T22:46:39.367Z,32.53
2022-12-24T22:49:10.874Z,40.35
2022-12-24T22:51:42.639Z,26.10
2022-12-24T22:54:14.046Z,24.05
2022-12-24T22:56:45.696Z,21.58
2022-12-24T22:59:19.887Z,21.50
2022-12-24T23:01:53.088Z,16.92
2022-12-24T23:04:24.580Z,19.50
2022-12-24T23:06:55.966Z,22.17
2022-12-24T23:09:27.526Z,23.33
2022-12-24T23:11:59.041Z,29.40
2022-12-24T23:14:45.695Z,27.05
2022-12-24T23:17:17.839Z,18.02
2022-12-24T23:19:49.448Z,15.70
2022-12-24T23:22:22.587Z,15.23
2022-12-24T23:24:53.883Z,14.07
2022-12-24T23:27:25.477Z,14.32
2022-12-24T23:29:59.776Z,13.80
2022-12-24T23:32:31.013Z,14.98
2022-12-24T23:35:02.955Z,15.75
2022-12-24T23:37:35.656Z,14.98
2022-12-24T23:40:06.839Z,14.02
2022-12-24T23:42:38.109Z,16.45
2022-12-24T23:45:12.810Z,15.27
2022-12-24T23:47:44.509Z,16.65
2022-12-24T23:50:15.391Z,19.63
2022-12-24T23:52:46.772Z,18.70
2022-12-24T23:55:18.498Z,17.48
2022-12-24T23:57:49.846Z,16.77
